Musselfork, Missouri
Current Conditions -  °F | °C
As of 3:15 PM on Monday 22 Dec 2014 (Local Time) from KVER Reporting Station
Drizzle Drizzle  
Wind Chill:   Ceiling: 400
Heat Index:   Visibility: 3mi
Dew Point:   Wind: 7mph
Humidity: 100%   Direction: 150°SSE
Pressure: 29.47"   Gusts: NA
Location:  39.4953°N, 92.9281°W
Report Text: KVER 222115Z AUTO 15006KT 3SM -DZ OVC004 08/08 A2947 RMK AO2 T00810082
Loading
Personal Weather Stations






























Interactive Weather Map New forecast layout! Learn more

10-Day Weather Forecast

Advertisements
Track Severe Weather on mobile